createdAt,value
2022-09-30T00:02:01.877Z,65.81
2022-09-30T00:07:05.118Z,65.86
2022-09-30T00:12:07.975Z,66.08
2022-09-30T00:17:10.803Z,65.96
2022-09-30T00:22:14.261Z,66.10
2022-09-30T00:27:18.386Z,66.14
2022-09-30T00:32:21.261Z,66.03
2022-09-30T00:37:24.137Z,65.86
2022-09-30T00:42:29.672Z,66.20
2022-09-30T00:47:48.674Z,66.05
2022-09-30T00:53:03.484Z,66.05
2022-09-30T00:58:09.921Z,66.24
2022-09-30T01:03:13.105Z,66.32
2022-09-30T01:08:18.535Z,66.31
2022-09-30T01:13:26.453Z,66.25
2022-09-30T01:18:53.838Z,66.43
2022-09-30T01:24:02.926Z,66.36
2022-09-30T01:29:14.339Z,66.29
2022-09-30T01:34:37.541Z,66.23
2022-09-30T01:39:43.354Z,66.18
2022-09-30T01:45:09.780Z,66.42
2022-09-30T01:50:35.275Z,66.39
2022-09-30T01:55:53.767Z,66.51
2022-09-30T02:01:01.313Z,66.34
2022-09-30T02:06:08.918Z,66.43
2022-09-30T02:11:24.125Z,66.35
2022-09-30T02:16:35.711Z,66.41
2022-09-30T02:21:42.303Z,66.47
2022-09-30T02:26:49.397Z,66.53
2022-09-30T02:31:56.420Z,66.48
2022-09-30T02:37:25.646Z,66.62
2022-09-30T02:42:30.576Z,66.62
2022-09-30T02:47:54.515Z,66.44
2022-09-30T02:53:00.177Z,66.54
2022-09-30T02:58:15.381Z,66.74
2022-09-30T03:03:33.074Z,66.67
2022-09-30T03:08:36.121Z,66.56
2022-09-30T03:14:14.283Z,66.93
2022-09-30T03:19:34.979Z,66.77
2022-09-30T03:25:09.412Z,66.57
2022-09-30T03:30:22.137Z,66.59
2022-09-30T03:35:38.014Z,66.69
2022-09-30T03:41:00.093Z,66.59
2022-09-30T03:46:11.877Z,66.69
2022-09-30T03:51:15.346Z,66.72
2022-09-30T03:56:26.246Z,66.75
2022-09-30T04:01:29.427Z,66.66
2022-09-30T04:06:32.287Z,66.73
2022-09-30T04:11:35.303Z,66.84
2022-09-30T04:16:38.237Z,66.91
2022-09-30T04:21:41.239Z,66.77
2022-09-30T04:26:44.033Z,66.86
2022-09-30T04:31:47.160Z,67.08
2022-09-30T04:36:50.089Z,67.15
2022-09-30T04:41:54.081Z,67.07
2022-09-30T04:46:57.364Z,67.28
2022-09-30T04:52:00.379Z,67.42
2022-09-30T04:57:03.473Z,67.51
2022-09-30T05:02:06.582Z,67.73
2022-09-30T05:07:09.420Z,67.83
2022-09-30T05:12:12.741Z,67.63
2022-09-30T05:17:15.608Z,67.59
2022-09-30T05:22:18.675Z,67.45
2022-09-30T05:27:22.844Z,67.58
2022-09-30T05:32:32.931Z,67.69
2022-09-30T05:37:35.751Z,67.64
2022-09-30T05:42:38.694Z,67.78
2022-09-30T05:47:42.332Z,67.75
2022-09-30T05:52:45.260Z,68.02
2022-09-30T05:57:49.756Z,67.85
2022-09-30T06:02:52.790Z,67.82
2022-09-30T06:07:55.682Z,67.92
2022-09-30T06:12:59.272Z,67.92
2022-09-30T06:18:02.699Z,68.09
2022-09-30T06:23:05.529Z,68.19
2022-09-30T06:28:08.424Z,67.99
2022-09-30T06:33:11.542Z,68.40
2022-09-30T06:38:18.521Z,68.37
2022-09-30T06:43:21.372Z,68.18
2022-09-30T06:48:35.583Z,68.19
2022-09-30T06:53:41.614Z,68.16
2022-09-30T06:58:47.639Z,68.10
2022-09-30T07:03:58.057Z,68.14
2022-09-30T07:09:01.044Z,68.14
2022-09-30T07:14:06.237Z,68.32
2022-09-30T07:19:11.424Z,68.33
2022-09-30T07:24:15.133Z,68.39
2022-09-30T07:29:18.489Z,68.30
2022-09-30T07:34:22.211Z,68.21
2022-09-30T07:39:25.072Z,68.24
2022-09-30T07:44:29.502Z,68.22
2022-09-30T07:49:32.635Z,68.37
2022-09-30T07:54:41.314Z,68.37
2022-09-30T07:59:45.473Z,68.46
2022-09-30T08:04:48.479Z,68.48
2022-09-30T08:09:51.540Z,68.42
2022-09-30T08:14:54.416Z,68.77
2022-09-30T08:19:57.299Z,68.55
2022-09-30T08:25:00.326Z,68.43
2022-09-30T08:30:05.219Z,68.33
2022-09-30T08:35:09.044Z,68.40
2022-09-30T08:40:28.645Z,68.42
2022-09-30T08:45:41.069Z,68.41
2022-09-30T08:51:06.107Z,68.52
2022-09-30T08:56:17.867Z,68.62
2022-09-30T09:01:27.446Z,68.67
2022-09-30T09:07:10.009Z,68.58
2022-09-30T09:12:37.139Z,68.61
2022-09-30T09:18:21.531Z,68.74
2022-09-30T09:23:19.349Z,68.75
2022-09-30T09:28:30.986Z,68.73
2022-09-30T09:33:39.819Z,68.86
2022-09-30T09:39:13.650Z,68.82
2022-09-30T09:44:56.675Z,68.66
2022-09-30T09:50:04.391Z,68.66
2022-09-30T09:55:09.681Z,68.69
2022-09-30T10:00:43.036Z,68.65
2022-09-30T10:06:00.741Z,68.97
2022-09-30T10:11:25.607Z,68.98
2022-09-30T10:16:32.309Z,68.98
2022-09-30T10:21:35.276Z,68.82
2022-09-30T10:26:47.830Z,68.85
2022-09-30T10:31:58.968Z,68.95
2022-09-30T10:37:10.713Z,69.01
2022-09-30T10:42:26.370Z,69.02
2022-09-30T10:47:36.251Z,69.09
2022-09-30T10:52:50.599Z,69.10
2022-09-30T10:57:55.030Z,69.21
2022-09-30T11:03:00.428Z,69.24
2022-09-30T11:08:09.434Z,69.38
2022-09-30T11:13:30.784Z,69.60
2022-09-30T11:18:54.413Z,69.43
2022-09-30T11:24:03.021Z,69.31
2022-09-30T11:29:14.126Z,69.37
2022-09-30T11:34:36.909Z,69.44
2022-09-30T11:40:22.901Z,69.46
2022-09-30T11:45:54.159Z,69.47
2022-09-30T11:51:15.438Z,69.52
2022-09-30T11:56:46.927Z,69.28
2022-09-30T12:01:53.235Z,69.02
2022-09-30T12:07:04.290Z,69.01
2022-09-30T12:12:16.032Z,69.29
2022-09-30T12:17:33.655Z,69.40
2022-09-30T12:22:44.225Z,69.26
2022-09-30T12:27:56.753Z,69.11
2022-09-30T12:33:11.425Z,69.23
2022-09-30T12:38:44.984Z,69.25
2022-09-30T12:44:00.844Z,69.23
2022-09-30T12:49:06.553Z,69.24
2022-09-30T12:54:29.094Z,69.27
2022-09-30T12:59:36.621Z,69.22
2022-09-30T13:04:43.094Z,69.19
2022-09-30T13:10:01.127Z,69.27
2022-09-30T13:15:42.557Z,69.38
2022-09-30T13:20:57.574Z,69.32
2022-09-30T13:26:02.225Z,69.13
2022-09-30T13:31:24.984Z,69.07
2022-09-30T13:36:41.386Z,69.07
2022-09-30T13:41:48.508Z,69.08
2022-09-30T13:46:56.980Z,69.17
2022-09-30T13:52:01.142Z,68.67
2022-09-30T13:57:05.821Z,68.61
2022-09-30T14:02:40.497Z,68.58
2022-09-30T14:08:12.635Z,68.46
2022-09-30T14:13:52.888Z,68.67
2022-09-30T14:19:14.126Z,68.76
2022-09-30T14:24:24.197Z,68.92
2022-09-30T14:29:46.819Z,68.90
2022-09-30T14:34:49.969Z,68.46
2022-09-30T14:39:55.511Z,68.48
2022-09-30T14:45:04.729Z,68.40
2022-09-30T14:50:20.783Z,68.33
2022-09-30T14:55:28.856Z,68.23
2022-09-30T15:00:32.154Z,68.16
2022-09-30T15:05:36.641Z,68.43
2022-09-30T15:10:47.568Z,68.37
2022-09-30T15:15:51.014Z,68.29
2022-09-30T15:21:00.347Z,68.49
2022-09-30T15:26:04.120Z,68.34
2022-09-30T15:31:15.996Z,68.18
2022-09-30T15:36:19.160Z,68.33
2022-09-30T15:41:22.522Z,68.20
2022-09-30T15:46:38.715Z,68.42
2022-09-30T15:51:43.525Z,68.31
2022-09-30T15:56:46.617Z,68.40
2022-09-30T16:01:52.405Z,68.54
2022-09-30T16:07:10.032Z,68.55
2022-09-30T16:12:12.888Z,68.57
2022-09-30T16:17:34.543Z,68.46
2022-09-30T16:22:40.478Z,68.54
2022-09-30T16:27:43.761Z,68.56
2022-09-30T16:32:51.897Z,68.74
2022-09-30T16:38:03.236Z,68.69
2022-09-30T16:43:07.911Z,68.99
2022-09-30T16:48:18.947Z,68.85
2022-09-30T16:53:22.160Z,68.88
2022-09-30T16:58:25.346Z,68.99
2022-09-30T17:03:28.381Z,68.92
2022-09-30T17:08:31.608Z,69.11
2022-09-30T17:13:35.289Z,68.95
2022-09-30T17:18:38.548Z,69.10
2022-09-30T17:23:41.522Z,69.21
2022-09-30T17:28:45.231Z,69.14
2022-09-30T17:33:50.063Z,68.89
2022-09-30T17:38:54.727Z,68.85
2022-09-30T17:44:02.627Z,69.05
2022-09-30T17:49:09.958Z,69.00
2022-09-30T17:54:18.851Z,68.97
2022-09-30T17:59:22.228Z,69.02
2022-09-30T18:04:26.240Z,68.96
2022-09-30T18:09:29.333Z,69.07
2022-09-30T18:14:38.476Z,69.00
2022-09-30T18:19:41.716Z,68.95
2022-09-30T18:25:07.245Z,69.04
2022-09-30T18:30:13.913Z,68.93
2022-09-30T18:35:20.193Z,68.87
2022-09-30T18:40:26.168Z,68.98
2022-09-30T18:45:31.594Z,68.97
2022-09-30T18:50:34.792Z,69.17
2022-09-30T18:55:38.637Z,69.17
2022-09-30T19:00:42.186Z,69.27
2022-09-30T19:05:45.187Z,69.15
2022-09-30T19:10:48.299Z,69.23
2022-09-30T19:15:51.144Z,69.36
2022-09-30T19:20:54.485Z,69.39
2022-09-30T19:25:58.789Z,69.46
2022-09-30T19:31:17.361Z,69.39
2022-09-30T19:36:21.430Z,69.48
2022-09-30T19:41:27.834Z,69.49
2022-09-30T19:46:35.018Z,69.49
2022-09-30T19:51:39.376Z,69.59
2022-09-30T19:56:43.331Z,69.64
2022-09-30T20:01:48.047Z,70.16
2022-09-30T20:06:54.426Z,69.84
2022-09-30T20:11:58.528Z,69.70
2022-09-30T20:17:03.133Z,69.70
2022-09-30T20:22:06.995Z,69.68
2022-09-30T20:27:12.979Z,69.75
2022-09-30T20:32:17.711Z,70.05
2022-09-30T20:37:22.863Z,70.15
2022-09-30T20:42:30.950Z,69.98
2022-09-30T20:47:37.342Z,69.98
2022-09-30T20:52:41.350Z,70.28
2022-09-30T20:57:45.131Z,70.30
2022-09-30T21:02:53.191Z,70.45
2022-09-30T21:07:57.919Z,70.65
2022-09-30T21:13:02.990Z,70.69
2022-09-30T21:18:07.840Z,70.57
2022-09-30T21:23:13.425Z,70.64
2022-09-30T21:28:19.873Z,70.80
2022-09-30T21:33:26.515Z,70.86
2022-09-30T21:38:32.136Z,71.00
2022-09-30T21:43:37.634Z,70.91
2022-09-30T21:48:43.045Z,70.96
2022-09-30T21:53:49.600Z,71.01
2022-09-30T21:58:53.206Z,71.14
2022-09-30T22:03:56.979Z,71.16
2022-09-30T22:09:02.242Z,71.13
2022-09-30T22:14:06.931Z,71.12
2022-09-30T22:19:13.720Z,71.25
2022-09-30T22:24:17.694Z,71.09
2022-09-30T22:29:21.567Z,70.92
2022-09-30T22:34:43.927Z,70.94
2022-09-30T22:39:48.770Z,70.97
2022-09-30T22:44:53.368Z,71.04
2022-09-30T22:49:57.813Z,71.01
2022-09-30T22:55:04.184Z,70.94
2022-09-30T23:00:08.405Z,70.92
2022-09-30T23:05:11.379Z,71.03
2022-09-30T23:10:21.280Z,70.97
2022-09-30T23:15:24.115Z,71.05
2022-09-30T23:20:27.088Z,71.01
2022-09-30T23:25:31.678Z,70.93
2022-09-30T23:30:35.300Z,70.97
2022-09-30T23:35:38.170Z,71.01
2022-09-30T23:40:48.536Z,70.98
2022-09-30T23:45:51.526Z,71.00
2022-09-30T23:50:54.694Z,70.97
2022-09-30T23:56:02.953Z,70.71
